sensor_id;sensor_type;location;lat;lon;timestamp;P1;P4;P2;P0;N10;N4;N25;N1;N05;TS
78519;SPS30;67818;51.986;5.648;2023-03-14T11:11:48;7.4;6.5;4.6;2.3;;;;4.0;59.0;
78519;SPS30;67818;51.986;5.648;2023-03-14T11:14:20;6.5;5.7;4.1;2.0;;;;79.0;87.0;
78519;SPS30;67818;51.986;5.648;2023-03-14T11:17:02;6.5;5.8;4.2;2.1;;;;84.0;98.0;
78519;SPS30;67818;51.986;5.648;2023-03-14T11:19:43;6.2;5.5;3.9;1.9;;;;57.0;88.0;
78519;SPS30;67818;51.986;5.648;2023-03-14T11:22:30;8.7;7.7;5.4;2.6;;;;45.0;97.0;
78519;SPS30;67818;51.986;5.648;2023-03-14T11:25:14;8.6;7.5;5.3;2.4;;;;23.0;100.0;
78519;SPS30;67818;51.986;5.648;2023-03-14T11:27:53;7.4;6.5;4.6;2.3;;;;13.0;93.0;
78519;SPS30;67818;51.986;5.648;2023-03-14T11:30:30;8.1;7.1;4.9;2.2;;;;10.0;99.0;
78519;SPS30;67818;51.986;5.648;2023-03-14T11:33:07;10.3;9.0;6.2;2.7;;;;7.0;98.0;
78519;SPS30;67818;51.986;5.648;2023-03-14T11:35:47;8.0;7.0;4.9;2.2;;;;5.0;100.0;
78519;SPS30;67818;51.986;5.648;2023-03-14T11:38:27;9.4;8.3;5.8;2.8;;;;5.0;102.0;
78519;SPS30;67818;51.986;5.648;2023-03-14T11:41:01;7.5;6.6;4.7;2.3;;;;4.0;104.0;
78519;SPS30;67818;51.986;5.648;2023-03-14T11:43:32;9.2;8.1;5.7;2.7;;;;3.0;101.0;
78519;SPS30;67818;51.986;5.648;2023-03-14T11:46:08;14.9;13.2;9.5;4.8;;;;3.0;103.0;
78519;SPS30;67818;51.986;5.648;2023-03-14T11:48:44;8.1;7.2;5.2;2.8;;;;2.0;99.0;
78519;SPS30;67818;51.986;5.648;2023-03-14T11:51:23;7.2;6.4;4.7;2.4;;;;2.0;102.0;
78519;SPS30;67818;51.986;5.648;2023-03-14T11:53:59;8.3;7.4;5.4;2.8;;;;2.0;100.0;
78519;SPS30;67818;51.986;5.648;2023-03-14T11:56:36;6.2;5.5;4.0;2.1;;;;2.0;99.0;
78519;SPS30;67818;51.986;5.648;2023-03-14T11:59:14;6.0;5.3;3.9;2.0;;;;1.0;104.0;
78519;SPS30;67818;51.986;5.648;2023-03-14T12:01:54;6.3;5.6;4.0;2.0;;;;1.0;65.0;
78519;SPS30;67818;51.986;5.648;2023-03-14T12:07:28;5.4;4.8;3.6;1.9;;;;2.0;74.0;
78519;SPS30;67818;51.986;5.648;2023-03-14T12:10:05;5.8;5.1;3.8;2.1;;;;34.0;99.0;
78519;SPS30;67818;51.986;5.648;2023-03-14T12:12:37;5.1;4.5;3.3;1.8;;;;29.0;96.0;
78519;SPS30;67818;51.986;5.648;2023-03-14T12:15:18;5.3;4.7;3.5;1.9;;;;24.0;104.0;
78519;SPS30;67818;51.986;5.648;2023-03-14T12:17:54;5.5;4.9;3.6;1.9;;;;17.0;97.0;
78519;SPS30;67818;51.986;5.648;2023-03-14T12:20:25;4.5;4.0;2.9;1.5;;;;9.0;102.0;
78519;SPS30;67818;51.986;5.648;2023-03-14T12:22:56;5.3;4.7;3.4;1.9;;;;5.0;96.0;
78519;SPS30;67818;51.986;5.648;2023-03-14T12:25:34;4.6;4.1;3.1;1.7;;;;4.0;110.0;
78519;SPS30;67818;51.986;5.648;2023-03-14T12:28:13;4.9;4.4;3.3;1.9;;;;3.0;103.0;
78519;SPS30;67818;51.986;5.648;2023-03-14T12:30:54;5.0;4.5;3.4;1.9;;;;2.0;96.0;
78519;SPS30;67818;51.986;5.648;2023-03-14T12:33:31;3.9;3.5;2.6;1.5;;;;2.0;96.0;
78519;SPS30;67818;51.986;5.648;2023-03-14T12:36:10;4.9;4.3;3.2;1.7;;;;1.0;103.0;
78519;SPS30;67818;51.986;5.648;2023-03-14T12:39:03;4.4;3.9;2.9;1.6;;;;1.0;101.0;
78519;SPS30;67818;51.986;5.648;2023-03-14T12:41:43;4.9;4.4;3.2;1.8;;;;1.0;104.0;
78519;SPS30;67818;51.986;5.648;2023-03-14T12:49:05;5.7;5.1;3.8;2.1;;;;1.0;102.0;
78519;SPS30;67818;51.986;5.648;2023-03-14T12:51:38;5.1;4.5;3.4;1.9;;;;1.0;104.0;
78519;SPS30;67818;51.986;5.648;2023-03-14T12:54:23;5.9;5.2;3.9;2.3;;;;1.0;119.0;
78519;SPS30;67818;51.986;5.648;2023-03-14T12:57:09;4.5;4.0;3.0;1.7;;;;1.0;112.0;
78519;SPS30;67818;51.986;5.648;2023-03-14T12:59:48;5.0;4.5;3.4;1.9;;;;1.0;95.0;
78519;SPS30;67818;51.986;5.648;2023-03-14T13:02:25;3.9;3.5;2.6;1.4;;;;1.0;76.0;
78519;SPS30;67818;51.986;5.648;2023-03-14T13:05:04;4.1;3.7;2.7;1.5;;;;1.0;57.0;
78519;SPS30;67818;51.986;5.648;2023-03-14T13:12:47;3.4;3.0;2.1;1.1;;;;2.0;78.0;
78519;SPS30;67818;51.986;5.648;2023-03-14T13:15:22;3.3;2.9;2.2;1.2;;;;17.0;95.0;
78519;SPS30;67818;51.986;5.648;2023-03-14T13:17:58;5.0;4.4;3.3;1.8;;;;18.0;94.0;
78519;SPS30;67818;51.986;5.648;2023-03-14T13:20:34;4.6;4.1;3.1;1.7;;;;15.0;97.0;
78519;SPS30;67818;51.986;5.648;2023-03-14T13:23:19;2.8;2.5;1.9;1.1;;;;12.0;98.0;
78519;SPS30;67818;51.986;5.648;2023-03-14T13:25:50;3.2;2.8;2.1;1.2;;;;8.0;95.0;
78519;SPS30;67818;51.986;5.648;2023-03-14T13:28:20;3.0;2.7;2.0;1.1;;;;6.0;106.0;
78519;SPS30;67818;51.986;5.648;2023-03-14T13:30:54;3.3;3.0;2.2;1.2;;;;4.0;97.0;
78519;SPS30;67818;51.986;5.648;2023-03-14T13:33:25;3.6;3.2;2.4;1.3;;;;3.0;97.0;
78519;SPS30;67818;51.986;5.648;2023-03-14T13:35:58;3.7;3.3;2.4;1.3;;;;2.0;99.0;
78519;SPS30;67818;51.986;5.648;2023-03-14T13:38:30;2.7;2.4;1.8;1.0;;;;2.0;104.0;
78519;SPS30;67818;51.986;5.648;2023-03-14T13:41:03;2.8;2.6;1.9;1.1;;;;2.0;100.0;
78519;SPS30;67818;51.986;5.648;2023-03-14T13:43:36;3.1;2.8;2.1;1.2;;;;1.0;101.0;
78519;SPS30;67818;51.986;5.648;2023-03-14T13:46:13;2.7;2.5;1.9;1.1;;;;1.0;103.0;
78519;SPS30;67818;51.986;5.648;2023-03-14T13:48:46;3.6;3.2;2.4;1.4;;;;1.0;102.0;
78519;SPS30;67818;51.986;5.648;2023-03-14T13:54:00;2.7;2.5;1.9;1.2;;;;2.0;68.0;
78519;SPS30;67818;51.986;5.648;2023-03-14T13:56:31;3.0;2.7;2.0;1.2;;;;9.0;91.0;
78519;SPS30;67818;51.986;5.648;2023-03-14T13:59:02;2.6;2.4;1.8;1.1;;;;11.0;95.0;
78519;SPS30;67818;51.986;5.648;2023-03-14T14:03:15;2.6;2.4;1.9;1.2;;;;2.0;81.0;
78519;SPS30;67818;51.986;5.648;2023-03-14T14:13:19;5.0;4.4;3.2;1.6;;;;2.0;82.0;
78519;SPS30;67818;51.986;5.648;2023-03-14T14:15:53;3.6;3.2;2.4;1.3;;;;11.0;97.0;
78519;SPS30;67818;51.986;5.648;2023-03-14T14:19:08;2.8;2.5;1.9;1.1;;;;2.0;82.0;
78519;SPS30;67818;51.986;5.648;2023-03-14T14:21:39;2.2;2.0;1.6;0.9;;;;8.0;100.0;
78519;SPS30;67818;51.986;5.648;2023-03-14T14:25:06;2.5;2.3;1.8;1.1;;;;1.0;81.0;
78519;SPS30;67818;51.986;5.648;2023-03-14T14:31:00;3.5;3.2;2.5;1.6;;;;1.0;78.0;
78519;SPS30;67818;51.986;5.648;2023-03-14T14:33:39;3.0;2.7;2.1;1.3;;;;5.0;92.0;
78519;SPS30;67818;51.986;5.648;2023-03-14T14:36:19;2.9;2.6;2.0;1.2;;;;6.0;95.0;
78519;SPS30;67818;51.986;5.648;2023-03-14T14:38:53;2.6;2.3;1.8;1.1;;;;6.0;99.0;
78519;SPS30;67818;51.986;5.648;2023-03-14T14:41:28;3.5;3.1;2.4;1.4;;;;5.0;98.0;
78519;SPS30;67818;51.986;5.648;2023-03-14T14:44:02;4.4;4.0;2.9;1.6;;;;4.0;97.0;
78519;SPS30;67818;51.986;5.648;2023-03-14T14:46:34;3.9;3.5;2.6;1.4;;;;3.0;99.0;
78519;SPS30;67818;51.986;5.648;2023-03-14T14:49:08;3.2;2.8;2.1;1.1;;;;3.0;99.0;
78519;SPS30;67818;51.986;5.648;2023-03-14T14:51:43;2.6;2.3;1.7;1.0;;;;2.0;102.0;
78519;SPS30;67818;51.986;5.648;2023-03-14T14:54:18;3.4;3.0;2.3;1.3;;;;2.0;99.0;
78519;SPS30;67818;51.986;5.648;2023-03-14T14:56:50;3.9;3.5;2.6;1.5;;;;2.0;99.0;
78519;SPS30;67818;51.986;5.648;2023-03-14T14:59:23;3.4;3.1;2.3;1.3;;;;1.0;99.0;
78519;SPS30;67818;51.986;5.648;2023-03-14T15:01:57;3.1;2.8;2.1;1.2;;;;1.0;98.0;
78519;SPS30;67818;51.986;5.648;2023-03-14T15:04:28;2.9;2.6;2.0;1.2;;;;1.0;103.0;
78519;SPS30;67818;51.986;5.648;2023-03-14T15:07:00;3.4;3.1;2.3;1.3;;;;1.0;103.0;
78519;SPS30;67818;51.986;5.648;2023-03-14T15:09:32;2.6;2.4;1.8;1.0;;;;1.0;101.0;
78519;SPS30;67818;51.986;5.648;2023-03-14T15:12:01;2.9;2.6;2.0;1.1;;;;1.0;100.0;
78519;SPS30;67818;51.986;5.648;2023-03-14T15:14:33;3.1;2.8;2.1;1.2;;;;1.0;99.0;
78519;SPS30;67818;51.986;5.648;2023-03-14T15:17:05;3.1;2.8;2.1;1.2;;;;1.0;103.0;
78519;SPS30;67818;51.986;5.648;2023-03-14T15:19:39;3.2;2.9;2.3;1.4;;;;1.0;130.0;
78519;SPS30;67818;51.986;5.648;2023-03-14T15:22:11;3.0;2.7;2.1;1.2;;;;1.0;144.0;
78519;SPS30;67818;51.986;5.648;2023-03-14T15:24:42;3.0;2.7;2.1;1.3;;;;1.0;140.0;
78519;SPS30;67818;51.986;5.648;2023-03-14T15:27:14;2.0;1.8;1.4;0.8;;;;1.0;89.0;
78519;SPS30;67818;51.986;5.648;2023-03-14T15:29:45;2.7;2.5;1.9;1.2;;;;1.0;82.0;
78519;SPS30;67818;51.986;5.648;2023-03-14T15:32:17;3.6;3.2;2.5;1.5;;;;1.0;78.0;
78519;SPS30;67818;51.986;5.648;2023-03-14T15:34:47;2.9;2.7;2.0;1.2;;;;1.0;86.0;
78519;SPS30;67818;51.986;5.648;2023-03-14T15:37:16;2.4;2.2;1.7;1.0;;;;1.0;62.0;
78519;SPS30;67818;51.986;5.648;2023-03-14T15:39:46;2.0;1.8;1.4;0.8;;;;1.0;56.0;
78519;SPS30;67818;51.986;5.648;2023-03-14T15:42:16;4.1;3.7;2.8;1.7;;;;1.0;62.0;
78519;SPS30;67818;51.986;5.648;2023-03-14T15:44:46;3.0;2.7;2.1;1.3;;;;1.0;64.0;
78519;SPS30;67818;51.986;5.648;2023-03-14T15:47:16;3.5;3.2;2.4;1.5;;;;1.0;77.0;
78519;SPS30;67818;51.986;5.648;2023-03-14T15:49:46;2.4;2.1;1.6;1.0;;;;1.0;99.0;
78519;SPS30;67818;51.986;5.648;2023-03-14T15:52:15;2.9;2.6;2.0;1.2;;;;1.0;97.0;
78519;SPS30;67818;51.986;5.648;2023-03-14T15:54:45;3.1;2.8;2.2;1.3;;;;1.0;111.0;
78519;SPS30;67818;51.986;5.648;2023-03-14T15:57:14;3.9;3.5;2.7;1.6;;;;1.0;120.0;
78519;SPS30;67818;51.986;5.648;2023-03-14T15:59:44;3.2;2.9;2.3;1.4;;;;1.0;94.0;
78519;SPS30;67818;51.986;5.648;2023-03-14T16:02:14;3.3;3.0;2.3;1.5;;;;1.0;83.0;
78519;SPS30;67818;51.986;5.648;2023-03-14T16:04:43;2.6;2.4;1.9;1.2;;;;1.0;118.0;
78519;SPS30;67818;51.986;5.648;2023-03-14T16:07:13;3.2;2.9;2.3;1.4;;;;1.0;94.0;
78519;SPS30;67818;51.986;5.648;2023-03-14T16:09:43;3.4;3.1;2.5;1.6;;;;1.0;86.0;
78519;SPS30;67818;51.986;5.648;2023-03-14T16:12:13;3.2;2.9;2.3;1.4;;;;1.0;85.0;
78519;SPS30;67818;51.986;5.648;2023-03-14T16:14:42;3.5;3.2;2.4;1.5;;;;1.0;77.0;
78519;SPS30;67818;51.986;5.648;2023-03-14T16:17:12;4.1;3.8;2.9;1.8;;;;1.0;79.0;
78519;SPS30;67818;51.986;5.648;2023-03-14T16:19:42;2.5;2.3;1.8;1.1;;;;1.0;79.0;
78519;SPS30;67818;51.986;5.648;2023-03-14T16:22:11;2.7;2.4;1.8;1.1;;;;1.0;80.0;
78519;SPS30;67818;51.986;5.648;2023-03-14T16:24:43;2.9;2.6;2.0;1.2;;;;1.0;76.0;
78519;SPS30;67818;51.986;5.648;2023-03-14T16:27:12;3.7;3.4;2.6;1.6;;;;1.0;71.0;
78519;SPS30;67818;51.986;5.648;2023-03-14T16:29:42;2.6;2.3;1.8;1.1;;;;1.0;129.0;
78519;SPS30;67818;51.986;5.648;2023-03-14T16:32:14;2.9;2.6;2.1;1.3;;;;1.0;100.0;
78519;SPS30;67818;51.986;5.648;2023-03-14T16:34:45;3.0;2.7;2.1;1.3;;;;1.0;94.0;
78519;SPS30;67818;51.986;5.648;2023-03-14T16:37:15;2.8;2.5;2.0;1.3;;;;1.0;128.0;
78519;SPS30;67818;51.986;5.648;2023-03-14T16:39:48;3.2;2.9;2.3;1.4;;;;1.0;143.0;
78519;SPS30;67818;51.986;5.648;2023-03-14T16:42:19;3.2;2.9;2.3;1.5;;;;1.0;177.0;
78519;SPS30;67818;51.986;5.648;2023-03-14T16:44:50;3.7;3.4;2.8;2.0;;;;1.0;160.0;
78519;SPS30;67818;51.986;5.648;2023-03-14T16:47:21;4.2;3.9;3.3;2.4;;;;1.0;115.0;
78519;SPS30;67818;51.986;5.648;2023-03-14T16:49:51;3.1;2.9;2.4;1.8;;;;1.0;116.0;
78519;SPS30;67818;51.986;5.648;2023-03-14T16:52:21;3.6;3.4;2.9;2.1;;;;1.0;135.0;
78519;SPS30;67818;51.986;5.648;2023-03-14T16:54:51;2.5;2.3;1.9;1.4;;;;1.0;144.0;
78519;SPS30;67818;51.986;5.648;2023-03-14T16:57:20;3.2;3.0;2.5;1.7;;;;1.0;183.0;
78519;SPS30;67818;51.986;5.648;2023-03-14T16:59:50;2.6;2.4;2.0;1.5;;;;1.0;204.0;
78519;SPS30;67818;51.986;5.648;2023-03-14T17:02:19;2.7;2.5;2.0;1.5;;;;1.0;186.0;
78519;SPS30;67818;51.986;5.648;2023-03-14T17:04:49;2.7;2.5;2.0;1.4;;;;1.0;85.0;
78519;SPS30;67818;51.986;5.648;2023-03-14T17:07:19;3.2;3.0;2.4;1.7;;;;1.0;96.0;
78519;SPS30;67818;51.986;5.648;2023-03-14T17:09:49;2.1;2.0;1.6;1.1;;;;1.0;79.0;
78519;SPS30;67818;51.986;5.648;2023-03-14T17:12:21;3.0;2.8;2.2;1.5;;;;1.0;63.0;
78519;SPS30;67818;51.986;5.648;2023-03-14T17:14:52;4.0;3.6;2.8;1.8;;;;1.0;71.0;
78519;SPS30;67818;51.986;5.648;2023-03-14T17:17:22;3.1;2.8;2.1;1.3;;;;1.0;72.0;
78519;SPS30;67818;51.986;5.648;2023-03-14T17:19:54;3.8;3.4;2.6;1.5;;;;1.0;83.0;
78519;SPS30;67818;51.986;5.648;2023-03-14T17:22:23;4.2;3.8;2.9;1.7;;;;1.0;92.0;
78519;SPS30;67818;51.986;5.648;2023-03-14T17:24:55;3.1;2.8;2.2;1.3;;;;1.0;116.0;
78519;SPS30;67818;51.986;5.648;2023-03-14T17:27:24;3.3;3.0;2.3;1.4;;;;1.0;119.0;
78519;SPS30;67818;51.986;5.648;2023-03-14T17:29:54;3.9;3.5;2.7;1.6;;;;1.0;179.0;
78519;SPS30;67818;51.986;5.648;2023-03-14T17:32:23;4.9;4.4;3.4;2.1;;;;1.0;170.0;
78519;SPS30;67818;51.986;5.648;2023-03-14T17:34:55;3.6;3.2;2.5;1.5;;;;1.0;149.0;
78519;SPS30;67818;51.986;5.648;2023-03-14T17:37:25;3.8;3.4;2.6;1.6;;;;1.0;107.0;
78519;SPS30;67818;51.986;5.648;2023-03-14T17:39:57;2.8;2.6;2.0;1.2;;;;1.0;116.0;
78519;SPS30;67818;51.986;5.648;2023-03-14T17:42:27;3.7;3.3;2.6;1.6;;;;1.0;117.0;
78519;SPS30;67818;51.986;5.648;2023-03-14T17:44:57;3.1;2.8;2.1;1.3;;;;1.0;110.0;
78519;SPS30;67818;51.986;5.648;2023-03-14T17:47:28;3.7;3.3;2.6;1.7;;;;1.0;138.0;
78519;SPS30;67818;51.986;5.648;2023-03-14T17:49:58;2.6;2.4;1.9;1.2;;;;1.0;96.0;
78519;SPS30;67818;51.986;5.648;2023-03-14T17:52:32;2.8;2.5;2.0;1.3;;;;1.0;103.0;
78519;SPS30;67818;51.986;5.648;2023-03-14T17:55:03;2.8;2.5;2.0;1.3;;;;1.0;104.0;
78519;SPS30;67818;51.986;5.648;2023-03-14T17:57:34;3.4;3.1;2.4;1.5;;;;1.0;76.0;
78519;SPS30;67818;51.986;5.648;2023-03-14T18:00:07;2.4;2.2;1.7;1.1;;;;1.0;85.0;
78519;SPS30;67818;51.986;5.648;2023-03-14T18:02:39;2.7;2.5;2.0;1.3;;;;1.0;89.0;
78519;SPS30;67818;51.986;5.648;2023-03-14T18:05:10;3.1;2.8;2.2;1.5;;;;1.0;88.0;
78519;SPS30;67818;51.986;5.648;2023-03-14T18:07:41;2.5;2.3;1.8;1.2;;;;1.0;85.0;
78519;SPS30;67818;51.986;5.648;2023-03-14T18:10:12;2.9;2.7;2.1;1.3;;;;1.0;116.0;
78519;SPS30;67818;51.986;5.648;2023-03-14T18:12:43;4.4;4.0;3.1;1.9;;;;1.0;112.0;
78519;SPS30;67818;51.986;5.648;2023-03-14T18:15:13;2.7;2.5;1.9;1.3;;;;1.0;108.0;
78519;SPS30;67818;51.986;5.648;2023-03-14T18:17:42;2.6;2.4;1.9;1.2;;;;1.0;121.0;
78519;SPS30;67818;51.986;5.648;2023-03-14T18:20:12;3.0;2.7;2.1;1.4;;;;1.0;123.0;
78519;SPS30;67818;51.986;5.648;2023-03-14T18:22:46;4.1;3.7;2.9;1.8;;;;1.0;137.0;
78519;SPS30;67818;51.986;5.648;2023-03-14T18:25:15;3.2;2.9;2.3;1.5;;;;1.0;138.0;
78519;SPS30;67818;51.986;5.648;2023-03-14T18:27:45;5.0;4.5;3.6;2.4;;;;1.0;181.0;
78519;SPS30;67818;51.986;5.648;2023-03-14T18:30:17;3.1;2.9;2.3;1.6;;;;1.0;155.0;
78519;SPS30;67818;51.986;5.648;2023-03-14T18:32:49;4.3;3.9;3.3;2.4;;;;1.0;284.0;
78519;SPS30;67818;51.986;5.648;2023-03-14T18:35:19;5.5;5.2;4.5;3.5;;;;1.0;357.0;
78519;SPS30;67818;51.986;5.648;2023-03-14T18:37:48;6.2;6.0;5.7;5.0;;;;1.0;455.0;
78519;SPS30;67818;51.986;5.648;2023-03-14T18:40:18;3.7;3.7;3.5;3.3;;;;1.0;459.0;
78519;SPS30;67818;51.986;5.648;2023-03-14T18:42:48;2.5;2.5;2.4;2.3;;;;1.0;455.0;
78519;SPS30;67818;51.986;5.648;2023-03-14T18:45:17;2.8;2.7;2.6;2.3;;;;1.0;420.0;
78519;SPS30;67818;51.986;5.648;2023-03-14T18:47:47;2.7;2.6;2.4;2.2;;;;1.0;426.0;
78519;SPS30;67818;51.986;5.648;2023-03-14T18:50:16;2.9;2.8;2.6;2.3;;;;1.0;413.0;
78519;SPS30;67818;51.986;5.648;2023-03-14T18:52:46;3.0;2.9;2.7;2.3;;;;1.0;439.0;
78519;SPS30;67818;51.986;5.648;2023-03-14T18:55:15;3.4;3.3;3.0;2.5;;;;1.0;426.0;
78519;SPS30;67818;51.986;5.648;2023-03-14T18:57:49;2.5;2.4;2.2;1.7;;;;1.0;419.0;
78519;SPS30;67818;51.986;5.648;2023-03-14T19:00:20;3.3;3.1;2.7;2.2;;;;1.0;434.0;
78519;SPS30;67818;51.986;5.648;2023-03-14T19:02:55;2.4;2.3;2.0;1.6;;;;1.0;431.0;
78519;SPS30;67818;51.986;5.648;2023-03-14T19:05:26;2.5;2.4;2.2;1.8;;;;1.0;443.0;
78519;SPS30;67818;51.986;5.648;2023-03-14T19:08:01;2.9;2.7;2.4;1.9;;;;1.0;410.0;
78519;SPS30;67818;51.986;5.648;2023-03-14T19:12:09;4.8;4.4;3.5;2.2;;;;4.0;70.0;
78519;SPS30;67818;51.986;5.648;2023-03-14T19:14:41;3.4;3.1;2.5;1.7;;;;85.0;97.0;
